NCAR-RAP Real-Time Weather Data

Output produced by METARs form (23 February 2020  00:38 UTC)
found at http://weather.rap.ucar.edu/surface/
 
KBGR 222353Z 27003KT 10SM FEW100 SCT250 01/M08 A3004 RMK AO2 SLP176 4/006 T00111083 10044 21022 53017
KBGR 222253Z 25003KT 10SM FEW100 FEW250 02/M08 A3002 RMK AO2 SLP170 T00221083
KBGR 222153Z 28005KT 10SM FEW100 SCT250 03/M08 A3000 RMK AO2 SLP163 T00331083